Time;durP1;ratioP1;P1;durP2;ratioP2;P2;SDS_P1;SDS_P2;PMS_P1;PMS_P2;Temp;Humidity;BMP_temperature;BMP_pressure;BME280_temperature;BME280_humidity;BME280_pressure;Samples;Min_cycle;Max_cycle;Signal;HPM_P1;HPM_P2
2023/11/24 00:04:01;;;;;;;4.33;3.97;;;9.90;43.20;;;;;;10259309;28;20223;-75
2023/11/24 00:09:06;;;;;;;4.50;4.10;;;9.90;43.00;;;;;;10260442;28;20224;-75
2023/11/24 00:14:10;;;;;;;4.10;3.80;;;9.90;43.00;;;;;;10266984;28;20339;-74
2023/11/24 00:19:15;;;;;;;4.20;3.90;;;10.00;42.20;;;;;;10261222;28;20223;-75
2023/11/24 00:24:19;;;;;;;4.13;3.77;;;10.00;42.60;;;;;;10260189;28;20288;-74
2023/11/24 00:29:23;;;;;;;4.27;3.90;;;10.00;41.90;;;;;;10262460;28;20861;-74
2023/11/24 00:34:26;;;;;;;4.33;3.93;;;10.00;42.00;;;;;;10258453;28;20243;-74
2023/11/24 00:39:30;;;;;;;4.13;3.77;;;10.00;41.90;;;;;;10257742;28;20231;-75
2023/11/24 00:44:34;;;;;;;4.50;4.07;;;10.00;42.00;;;;;;10253631;28;20327;-75
2023/11/24 00:49:39;;;;;;;3.80;3.50;;;9.90;43.10;;;;;;10263154;28;20259;-75
2023/11/24 00:54:42;;;;;;;4.17;3.77;;;10.00;42.20;;;;;;10262201;28;20279;-75
2023/11/24 00:59:47;;;;;;;4.10;3.70;;;10.00;42.10;;;;;;10254856;28;20227;-75
2023/11/24 01:04:50;;;;;;;4.40;4.00;;;10.00;42.20;;;;;;10259886;28;20242;-74
2023/11/24 01:09:53;;;;;;;3.80;3.40;;;10.00;42.10;;;;;;10265907;28;20242;-75
2023/11/24 01:14:58;;;;;;;3.83;3.50;;;10.00;42.00;;;;;;10257432;28;20244;-74
2023/11/24 01:20:01;;;;;;;3.90;3.60;;;10.00;42.10;;;;;;10256170;28;20719;-75
2023/11/24 01:25:05;;;;;;;4.07;3.57;;;10.00;42.00;;;;;;10264749;28;20282;-75
2023/11/24 01:30:11;;;;;;;4.00;3.70;;;10.00;42.00;;;;;;10262686;28;20245;-75
2023/11/24 01:35:14;;;;;;;3.50;3.20;;;10.00;42.00;;;;;;10264091;28;20239;-74
2023/11/24 01:40:18;;;;;;;3.27;3.03;;;10.00;41.90;;;;;;10271858;28;20219;-75
2023/11/24 01:45:23;;;;;;;3.40;3.10;;;10.10;42.00;;;;;;10258719;28;20239;-75
2023/11/24 01:50:27;;;;;;;3.63;3.33;;;10.10;42.00;;;;;;10262501;28;20250;-74
2023/11/24 01:55:30;;;;;;;3.07;2.87;;;10.10;42.10;;;;;;10265269;28;21097;-75
2023/11/24 02:00:38;;;;;;;3.20;2.90;;;10.10;42.10;;;;;;10267859;28;20250;-75
2023/11/24 02:05:41;;;;;;;3.30;3.00;;;10.10;42.30;;;;;;10270975;28;20322;-75
2023/11/24 02:10:45;;;;;;;3.30;3.00;;;10.10;42.30;;;;;;10265730;28;20362;-75
2023/11/24 02:15:50;;;;;;;3.10;2.90;;;10.10;42.40;;;;;;10269116;28;20319;-74
2023/11/24 02:20:54;;;;;;;3.10;2.80;;;10.20;42.60;;;;;;10269774;28;20329;-75
2023/11/24 02:25:59;;;;;;;3.07;2.77;;;10.20;42.50;;;;;;10264097;28;20323;-75
2023/11/24 02:31:03;;;;;;;3.07;2.87;;;10.10;42.60;;;;;;10258606;28;20694;-75
2023/11/24 02:36:17;;;;;;;3.17;2.87;;;10.10;42.60;;;;;;10263365;28;20695;-74
2023/11/24 02:41:21;;;;;;;3.77;3.37;;;10.10;42.50;;;;;;10265224;28;20346;-75
2023/11/24 02:46:24;;;;;;;2.97;2.77;;;10.10;42.80;;;;;;10264479;28;20235;-74
2023/11/24 02:51:28;;;;;;;2.90;2.70;;;10.00;42.90;;;;;;10258673;28;20237;-75
2023/11/24 02:56:34;;;;;;;2.90;2.70;;;10.00;42.90;;;;;;10266965;28;20234;-74
2023/11/24 03:01:37;;;;;;;2.60;2.40;;;10.00;43.20;;;;;;10264818;28;20608;-74
2023/11/24 03:06:41;;;;;;;3.17;2.63;;;10.00;43.10;;;;;;10266841;28;20240;-74
2023/11/24 03:11:46;;;;;;;2.73;2.50;;;10.00;43.40;;;;;;10265089;28;20380;-74
2023/11/24 03:16:50;;;;;;;2.40;2.20;;;10.00;43.40;;;;;;10260467;28;20831;-74
2023/11/24 03:21:53;;;;;;;2.30;2.10;;;10.00;43.30;;;;;;10264959;28;20248;-74
2023/11/24 03:26:57;;;;;;;2.10;2.00;;;10.00;43.40;;;;;;10262760;28;20236;-74
2023/11/24 03:32:01;;;;;;;2.60;2.40;;;10.10;43.80;;;;;;10267237;28;20238;-74
2023/11/24 03:37:04;;;;;;;2.77;2.57;;;10.20;43.60;;;;;;10255025;28;20368;-74
2023/11/24 03:42:09;;;;;;;3.00;2.40;;;10.20;43.50;;;;;;10252417;28;20311;-74
2023/11/24 03:47:12;;;;;;;2.37;2.10;;;10.30;43.80;;;;;;10261160;28;20772;-74
2023/11/24 03:52:15;;;;;;;1.83;1.73;;;10.30;43.60;;;;;;10257358;28;20250;-74
2023/11/24 03:57:20;;;;;;;1.63;1.53;;;10.40;43.70;;;;;;10268488;28;20234;-74
2023/11/24 04:02:23;;;;;;;1.80;1.70;;;10.40;43.80;;;;;;10265468;28;20236;-74
2023/11/24 04:07:27;;;;;;;1.80;1.70;;;10.40;43.80;;;;;;10260672;28;20251;-74
2023/11/24 04:12:31;;;;;;;1.77;1.67;;;10.40;43.60;;;;;;10267365;28;20605;-74
2023/11/24 04:17:34;;;;;;;1.60;1.50;;;10.50;44.10;;;;;;10262843;28;20242;-76
2023/11/24 04:22:38;;;;;;;4.77;1.70;;;10.50;43.80;;;;;;10262164;28;20720;-74
2023/11/24 04:27:43;;;;;;;1.93;1.60;;;10.50;43.70;;;;;;10259045;28;20229;-74
2023/11/24 04:32:47;;;;;;;2.27;2.07;;;10.60;43.80;;;;;;10255871;28;20227;-74
2023/11/24 04:37:50;;;;;;;1.80;1.70;;;10.60;43.60;;;;;;10263623;28;20350;-74
2023/11/24 04:42:55;;;;;;;1.63;1.53;;;10.60;43.60;;;;;;10256781;28;20248;-74
2023/11/24 04:54:21;;;;;;;1.60;1.50;;;10.60;44.40;;;;;;10231063;28;20223;-74
2023/11/24 04:59:27;;;;;;;1.30;1.20;;;10.60;43.80;;;;;;10262544;28;20246;-74
2023/11/24 05:04:30;;;;;;;1.53;1.43;;;10.60;44.00;;;;;;10265879;28;20260;-74
2023/11/24 05:09:35;;;;;;;1.60;1.50;;;10.60;43.80;;;;;;10265585;28;20238;-74
2023/11/24 05:14:40;;;;;;;1.50;1.40;;;10.60;43.80;;;;;;10267736;28;20239;-74
2023/11/24 05:19:44;;;;;;;1.47;1.37;;;10.60;44.00;;;;;;10270595;28;20274;-74
2023/11/24 05:24:47;;;;;;;1.60;1.50;;;10.60;44.10;;;;;;10269141;28;20243;-74
2023/11/24 05:29:52;;;;;;;2.23;1.80;;;10.60;44.30;;;;;;10267312;28;20239;-74
2023/11/24 05:34:55;;;;;;;1.80;1.70;;;10.50;44.50;;;;;;10265528;28;20236;-76
2023/11/24 05:40:01;;;;;;;1.50;1.40;;;10.60;44.40;;;;;;10269328;28;20223;-74
2023/11/24 05:45:07;;;;;;;1.50;1.40;;;10.50;44.50;;;;;;10271627;28;20236;-76
2023/11/24 05:50:17;;;;;;;1.67;0.93;;;10.60;45.10;;;;;;10261602;28;20359;-76
2023/11/24 05:55:21;;;;;;;1.20;0.80;;;10.50;42.90;;;;;;10271357;28;20223;-76
2023/11/24 06:00:25;;;;;;;0.70;0.70;;;10.40;43.00;;;;;;10274331;28;20318;-75
2023/11/24 06:05:29;;;;;;;1.20;0.97;;;10.10;43.70;;;;;;10265028;28;20236;-75
2023/11/24 06:10:34;;;;;;;1.67;0.97;;;10.00;44.20;;;;;;10257776;28;20317;-76
2023/11/24 06:15:38;;;;;;;1.00;0.90;;;9.90;45.20;;;;;;10267973;28;20681;-74
2023/11/24 06:20:42;;;;;;;0.80;0.80;;;9.90;45.70;;;;;;10267749;28;21013;-73
2023/11/24 06:25:45;;;;;;;0.80;0.80;;;9.90;45.40;;;;;;10267685;28;20242;-73
2023/11/24 06:30:49;;;;;;;1.90;1.20;;;10.00;44.60;;;;;;10262931;28;20238;-73
2023/11/24 06:35:55;;;;;;;1.00;1.00;;;10.00;44.70;;;;;;10271634;28;20236;-73
2023/11/24 06:40:58;;;;;;;0.90;0.90;;;10.10;44.70;;;;;;10262734;28;20251;-73
2023/11/24 06:46:04;;;;;;;0.70;0.70;;;10.10;44.40;;;;;;10274924;28;20239;-74
2023/11/24 06:51:08;;;;;;;1.17;0.90;;;10.10;45.20;;;;;;10273700;28;20381;-74
2023/11/24 06:56:11;;;;;;;1.20;1.10;;;10.10;44.80;;;;;;10276459;28;20240;-75
2023/11/24 07:01:27;;;;;;;1.23;0.87;;;10.10;44.90;;;;;;10276175;28;20232;-75
2023/11/24 07:06:30;;;;;;;1.00;0.90;;;10.20;45.70;;;;;;10281390;28;20593;-74
2023/11/24 07:11:34;;;;;;;3.27;1.10;;;10.20;44.60;;;;;;10269135;28;20239;-74
2023/11/24 07:16:39;;;;;;;1.93;1.03;;;10.20;44.30;;;;;;10277353;28;20299;-74
2023/11/24 07:21:42;;;;;;;2.00;1.00;;;10.20;44.40;;;;;;10264463;28;20239;-74
2023/11/24 07:26:46;;;;;;;2.63;1.20;;;10.20;44.20;;;;;;10273105;28;20236;-74
2023/11/24 07:31:50;;;;;;;3.63;1.30;;;10.20;44.20;;;;;;10268702;28;20244;-74
2023/11/24 07:36:55;;;;;;;4.13;1.50;;;10.20;44.20;;;;;;10276192;28;20319;-74
2023/11/24 07:41:59;;;;;;;2.30;1.20;;;10.30;43.90;;;;;;10276744;28;20248;-74
2023/11/24 07:47:04;;;;;;;2.50;1.37;;;10.20;43.80;;;;;;10276407;28;20310;-74
2023/11/24 07:52:07;;;;;;;1.63;1.40;;;10.20;44.10;;;;;;10260874;28;20668;-73
2023/11/24 07:57:11;;;;;;;1.53;1.30;;;10.20;44.10;;;;;;10274151;28;20238;-74
2023/11/24 08:02:15;;;;;;;2.30;1.50;;;10.10;44.20;;;;;;10275707;28;20232;-74
2023/11/24 08:07:18;;;;;;;2.37;1.60;;;10.10;44.20;;;;;;10275706;28;20950;-74
2023/11/24 08:12:22;;;;;;;2.47;1.20;;;10.00;43.90;;;;;;10276184;28;20246;-75
2023/11/24 08:17:26;;;;;;;2.87;1.10;;;10.00;43.60;;;;;;10272724;28;20259;-75
2023/11/24 08:22:30;;;;;;;1.90;1.17;;;9.90;44.80;;;;;;10268257;28;20238;-74
2023/11/24 08:27:34;;;;;;;1.77;1.10;;;9.80;44.30;;;;;;10272952;28;20242;-75
2023/11/24 08:32:39;;;;;;;1.83;1.10;;;9.70;43.80;;;;;;10273007;28;20232;-74
2023/11/24 08:37:48;;;;;;;1.93;1.00;;;9.60;44.20;;;;;;10270451;28;20318;-74
2023/11/24 08:42:53;;;;;;;1.43;1.10;;;9.40;44.20;;;;;;10271806;28;20231;-74
2023/11/24 08:47:57;;;;;;;1.73;1.10;;;9.40;44.60;;;;;;10274550;28;20764;-74
2023/11/24 08:53:00;;;;;;;3.50;1.17;;;9.40;44.70;;;;;;10271728;28;20327;-74
2023/11/24 08:58:04;;;;;;;2.93;1.03;;;9.40;44.60;;;;;;10276229;28;20226;-74
2023/11/24 09:03:09;;;;;;;3.03;1.20;;;9.40;44.50;;;;;;10274691;28;20226;-74
2023/11/24 09:08:13;;;;;;;3.60;1.53;;;9.30;44.70;;;;;;10273910;28;20350;-76
2023/11/24 09:13:19;;;;;;;2.53;1.50;;;9.30;44.70;;;;;;10278637;28;20223;-74
2023/11/24 09:18:23;;;;;;;1.60;1.47;;;9.30;44.80;;;;;;10278811;28;20247;-74
2023/11/24 09:23:27;;;;;;;2.10;1.70;;;9.20;45.10;;;;;;10272578;28;20255;-74
2023/11/24 09:28:30;;;;;;;2.30;1.70;;;9.20;45.20;;;;;;10271829;28;20821;-76
2023/11/24 09:33:34;;;;;;;5.37;2.20;;;9.20;45.60;;;;;;10268983;28;20827;-75
2023/11/24 09:38:39;;;;;;;5.20;2.17;;;9.30;45.90;;;;;;10258104;28;20259;-74
2023/11/24 09:43:42;;;;;;;5.13;2.00;;;9.30;45.60;;;;;;10261839;28;20227;-74
2023/11/24 09:48:48;;;;;;;5.33;2.80;;;9.30;45.80;;;;;;10275717;28;20242;-75
2023/11/24 09:53:54;;;;;;;4.33;1.80;;;9.30;46.20;;;;;;10274357;28;20232;-75
2023/11/24 09:58:57;;;;;;;3.50;1.40;;;9.30;45.70;;;;;;10276200;28;20228;-75
2023/11/24 10:04:02;;;;;;;5.50;1.80;;;9.30;45.40;;;;;;10272750;28;20736;-75
2023/11/24 10:09:10;;;;;;;4.83;1.67;;;9.40;45.60;;;;;;10280318;28;20220;-74
2023/11/24 10:14:15;;;;;;;4.40;1.67;;;9.30;45.30;;;;;;10275564;28;20225;-75
2023/11/24 10:19:21;;;;;;;4.57;1.90;;;9.30;45.40;;;;;;10279406;28;20232;-75
2023/11/24 10:24:26;;;;;;;3.40;1.90;;;9.40;45.70;;;;;;10275749;28;20235;-75
2023/11/24 10:29:30;;;;;;;4.90;1.97;;;9.30;45.60;;;;;;10269646;28;20702;-75
2023/11/24 10:34:35;;;;;;;8.77;2.60;;;9.40;45.90;;;;;;10272876;28;20227;-75
2023/11/24 10:39:44;;;;;;;5.67;2.40;;;9.40;47.00;;;;;;10278563;28;20291;-75
2023/11/24 10:44:56;;;;;;;8.23;2.77;;;9.40;46.30;;;;;;10276317;28;20231;-75
2023/11/24 10:50:07;;;;;;;5.17;2.43;;;9.40;46.60;;;;;;10275175;28;20228;-75
2023/11/24 10:55:13;;;;;;;8.10;2.60;;;9.50;46.40;;;;;;10267823;28;20220;-75
2023/11/24 11:00:20;;;;;;;7.07;2.20;;;9.60;46.10;;;;;;10269153;28;20220;-75
2023/11/24 11:05:36;;;;;;;4.90;2.27;;;9.60;46.10;;;;;;10275962;28;20247;-75
2023/11/24 11:10:45;;;;;;;5.60;2.40;;;9.60;46.50;;;;;;10274977;28;20246;-75
2023/11/24 11:15:50;;;;;;;7.50;2.57;;;9.60;45.90;;;;;;10276752;28;20247;-75
2023/11/24 11:20:55;;;;;;;6.83;2.40;;;9.60;45.90;;;;;;10266400;28;20243;-75
2023/11/24 11:26:01;;;;;;;4.47;1.90;;;9.60;46.10;;;;;;10273738;28;20323;-75
2023/11/24 11:31:33;;;;;;;5.83;1.87;;;9.60;46.00;;;;;;10270658;28;20290;-75
2023/11/24 11:37:11;;;;;;;5.07;1.67;;;9.70;46.40;;;;;;10271586;28;20242;-75
2023/11/24 11:42:16;;;;;;;4.50;2.10;;;9.70;46.00;;;;;;10264587;28;20224;-75
2023/11/24 11:47:21;;;;;;;3.97;1.47;;;9.70;45.60;;;;;;10268333;28;20247;-75
2023/11/24 11:52:30;;;;;;;13.40;8.87;;;9.80;46.20;;;;;;10266478;28;20287;-75
2023/11/24 11:57:36;;;;;;;6.53;3.17;;;9.70;45.60;;;;;;10257766;28;20306;-75
2023/11/24 12:02:39;;;;;;;3.23;2.00;;;9.70;45.50;;;;;;10265900;28;20242;-75
2023/11/24 12:07:48;;;;;;;3.00;1.40;;;9.80;45.30;;;;;;10272451;28;20286;-75
2023/11/24 12:12:51;;;;;;;3.00;1.30;;;9.80;45.40;;;;;;10274410;28;20493;-75
2023/11/24 12:17:56;;;;;;;5.57;1.33;;;9.70;45.00;;;;;;10278641;28;20302;-75
2023/11/24 12:23:04;;;;;;;2.73;1.23;;;9.70;44.90;;;;;;10273868;28;20223;-75
2023/11/24 12:28:09;;;;;;;4.10;1.40;;;9.70;44.80;;;;;;10281884;28;20223;-75
2023/11/24 12:33:18;;;;;;;4.60;1.60;;;9.70;44.50;;;;;;10270967;28;20228;-75
2023/11/24 12:38:23;;;;;;;3.50;1.47;;;9.60;44.30;;;;;;10282361;28;20237;-75
2023/11/24 12:43:28;;;;;;;1.87;1.10;;;9.50;44.00;;;;;;10277347;28;20241;-75
2023/11/24 12:48:34;;;;;;;3.60;1.50;;;9.50;44.10;;;;;;10267841;28;20314;-75
2023/11/24 12:53:39;;;;;;;3.87;1.40;;;9.50;44.10;;;;;;10277827;28;20229;-75
2023/11/24 12:58:43;;;;;;;2.73;1.30;;;9.50;44.00;;;;;;10268501;28;20220;-75
2023/11/24 13:03:47;;;;;;;3.50;1.43;;;9.50;44.10;;;;;;10273437;28;20227;-75
2023/11/24 13:08:52;;;;;;;3.33;1.43;;;9.50;44.10;;;;;;10275413;28;20335;-75
2023/11/24 13:13:55;;;;;;;2.87;1.20;;;9.50;43.80;;;;;;10272500;28;20319;-75
2023/11/24 13:19:02;;;;;;;2.57;1.20;;;9.40;43.60;;;;;;10274344;28;20237;-75
2023/11/24 13:24:07;;;;;;;5.60;2.70;;;9.40;43.70;;;;;;10269539;28;20252;-75
2023/11/24 13:29:11;;;;;;;5.37;3.20;;;9.40;43.40;;;;;;10282936;28;20234;-75
2023/11/24 13:34:16;;;;;;;3.70;2.70;;;9.30;43.50;;;;;;10282066;28;20323;-75
2023/11/24 13:39:22;;;;;;;2.27;1.63;;;9.30;43.70;;;;;;10293629;28;20228;-75
2023/11/24 13:44:26;;;;;;;1.80;1.50;;;9.30;43.50;;;;;;10278729;28;20243;-75
2023/11/24 13:49:29;;;;;;;1.50;1.20;;;9.30;43.50;;;;;;10282778;28;20327;-75
2023/11/24 13:54:35;;;;;;;2.40;1.00;;;9.30;43.50;;;;;;10283453;28;20257;-75
2023/11/24 13:59:38;;;;;;;2.73;1.00;;;9.20;43.90;;;;;;10282657;28;20233;-75
2023/11/24 14:04:41;;;;;;;1.77;0.90;;;9.20;43.40;;;;;;10282871;28;20278;-75
2023/11/24 14:09:46;;;;;;;0.80;0.80;;;9.10;43.50;;;;;;10268976;28;20243;-74
2023/11/24 14:14:50;;;;;;;2.07;1.33;;;9.00;43.60;;;;;;10267997;28;20227;-75
2023/11/24 14:19:54;;;;;;;0.77;0.77;;;9.00;43.90;;;;;;10273632;28;20244;-76
2023/11/24 14:24:58;;;;;;;1.20;0.90;;;9.00;43.20;;;;;;10272165;28;20315;-77
2023/11/24 14:30:05;;;;;;;1.00;0.97;;;8.80;43.00;;;;;;10275911;28;20223;-76
2023/11/24 14:35:10;;;;;;;1.50;0.77;;;8.70;43.20;;;;;;10274663;28;20228;-76
2023/11/24 14:40:15;;;;;;;1.10;1.00;;;8.60;43.60;;;;;;10270380;28;20252;-76
2023/11/24 14:45:25;;;;;;;1.77;1.40;;;8.60;43.60;;;;;;10271192;28;20227;-76
2023/11/24 14:50:28;;;;;;;1.93;1.33;;;8.50;43.20;;;;;;10270970;28;21648;-76
2023/11/24 14:55:34;;;;;;;3.03;2.00;;;8.40;43.20;;;;;;10269698;28;20239;-75
2023/11/24 15:00:39;;;;;;;1.30;1.20;;;8.30;43.20;;;;;;10273613;28;20807;-75
2023/11/24 15:05:51;;;;;;;1.60;1.40;;;8.20;43.50;;;;;;10264197;28;20232;-76
2023/11/24 15:10:56;;;;;;;2.80;1.60;;;8.20;43.60;;;;;;10264502;28;20228;-76
2023/11/24 15:16:00;;;;;;;1.97;1.87;;;8.20;43.60;;;;;;10266137;28;20220;-76
2023/11/24 15:21:04;;;;;;;3.67;1.00;;;8.10;43.60;;;;;;10264484;28;20228;-75
2023/11/24 15:26:11;;;;;;;1.40;1.10;;;8.10;44.00;;;;;;10268631;28;20720;-76
2023/11/24 15:31:14;;;;;;;1.10;1.00;;;8.10;44.10;;;;;;10261528;28;20235;-76
2023/11/24 15:36:18;;;;;;;0.80;0.80;;;8.10;43.80;;;;;;10266576;28;20227;-76
2023/11/24 15:41:26;;;;;;;1.40;0.80;;;8.20;43.80;;;;;;10258158;28;20327;-76
2023/11/24 15:46:33;;;;;;;1.10;1.00;;;8.20;43.80;;;;;;10257608;28;20908;-74
2023/11/24 15:51:38;;;;;;;1.73;0.80;;;8.20;43.70;;;;;;10258413;28;20239;-76
2023/11/24 15:56:44;;;;;;;1.47;1.30;;;8.20;43.60;;;;;;10262814;28;20244;-75
2023/11/24 16:01:47;;;;;;;1.30;1.10;;;8.20;43.80;;;;;;10259432;28;20721;-75
2023/11/24 16:06:55;;;;;;;1.30;1.00;;;8.20;43.70;;;;;;10265716;28;20318;-75
2023/11/24 16:12:01;;;;;;;0.70;0.70;;;8.20;43.60;;;;;;10262856;28;20263;-75
2023/11/24 16:17:07;;;;;;;0.83;0.83;;;8.10;43.30;;;;;;10264434;28;20220;-74
2023/11/24 16:22:11;;;;;;;1.50;1.00;;;7.90;43.40;;;;;;10260613;28;20715;-74
2023/11/24 16:27:20;;;;;;;1.70;1.60;;;7.80;43.50;;;;;;10259059;28;20231;-74
2023/11/24 16:32:24;;;;;;;1.03;0.97;;;7.70;43.70;;;;;;10260110;28;20235;-74
2023/11/24 16:37:28;;;;;;;1.13;1.00;;;7.50;43.50;;;;;;10260927;28;20314;-74
2023/11/24 16:42:32;;;;;;;1.13;1.13;;;7.50;43.60;;;;;;10268107;28;20725;-75
2023/11/24 16:47:37;;;;;;;0.97;0.93;;;7.40;43.70;;;;;;10261958;28;20942;-75
2023/11/24 16:52:42;;;;;;;0.80;0.80;;;7.30;43.60;;;;;;10264067;28;20239;-76
2023/11/24 16:57:51;;;;;;;0.70;0.70;;;7.30;43.90;;;;;;10265436;28;20595;-76
2023/11/24 17:02:54;;;;;;;1.23;0.90;;;7.30;44.00;;;;;;10259684;28;20234;-76
2023/11/24 17:07:58;;;;;;;0.60;0.60;;;7.30;44.00;;;;;;10259668;28;20231;-75
2023/11/24 17:13:04;;;;;;;0.90;0.90;;;7.30;44.00;;;;;;10263663;28;20223;-76
2023/11/24 17:18:09;;;;;;;0.73;0.73;;;7.30;44.10;;;;;;10249929;28;20220;-75
2023/11/24 17:23:16;;;;;;;0.90;0.90;;;7.20;44.00;;;;;;10262492;28;20227;-76
2023/11/24 17:28:21;;;;;;;1.20;1.10;;;7.10;43.90;;;;;;10261327;28;20287;-76
2023/11/24 17:33:24;;;;;;;1.00;1.00;;;7.00;44.00;;;;;;10269128;28;20239;-76
2023/11/24 17:38:27;;;;;;;0.90;0.90;;;7.00;44.10;;;;;;10265561;28;20235;-76
2023/11/24 17:43:34;;;;;;;1.10;1.00;;;7.00;44.10;;;;;;10270232;28;20240;-76
2023/11/24 17:48:37;;;;;;;0.90;0.90;;;7.00;44.20;;;;;;10258751;28;20239;-76
2023/11/24 17:53:43;;;;;;;1.30;1.20;;;7.00;44.00;;;;;;10261805;28;20267;-76
2023/11/24 17:58:48;;;;;;;1.00;1.00;;;7.10;44.00;;;;;;10259765;28;20248;-75
2023/11/24 18:03:51;;;;;;;1.20;1.10;;;7.10;44.00;;;;;;10259467;28;20235;-76
2023/11/24 18:08:55;;;;;;;2.00;1.63;;;7.10;44.60;;;;;;10266603;28;20242;-75
2023/11/24 18:14:00;;;;;;;1.87;1.10;;;7.10;44.10;;;;;;10268099;28;20251;-76
2023/11/24 18:19:03;;;;;;;1.50;1.40;;;7.10;44.30;;;;;;10268692;28;20242;-76
2023/11/24 18:24:07;;;;;;;1.50;1.40;;;7.10;44.20;;;;;;10264805;28;20326;-75
2023/11/24 18:29:13;;;;;;;1.43;1.33;;;7.10;44.30;;;;;;10258190;28;20228;-75
2023/11/24 18:34:17;;;;;;;1.77;1.60;;;7.10;44.30;;;;;;10262274;28;20261;-75
2023/11/24 18:39:20;;;;;;;1.63;1.40;;;7.10;44.10;;;;;;10271999;28;20236;-76
2023/11/24 18:44:26;;;;;;;1.63;1.23;;;7.20;44.10;;;;;;10263210;28;20231;-75
2023/11/24 18:49:29;;;;;;;2.90;1.50;;;7.10;44.00;;;;;;10262249;28;20959;-75
2023/11/24 18:54:33;;;;;;;1.60;1.50;;;7.20;44.00;;;;;;10267455;28;20734;-75
2023/11/24 18:59:37;;;;;;;1.80;1.70;;;7.10;43.80;;;;;;10268244;28;20238;-76
2023/11/24 19:04:40;;;;;;;2.20;1.60;;;7.10;43.70;;;;;;10268403;28;20240;-75
2023/11/24 19:09:46;;;;;;;1.70;1.60;;;7.10;43.70;;;;;;10261748;28;20235;-75
2023/11/24 19:14:50;;;;;;;2.30;1.90;;;7.00;43.50;;;;;;10267560;28;20239;-75
2023/11/24 19:19:54;;;;;;;2.07;1.77;;;7.00;43.40;;;;;;10260221;28;20317;-75
2023/11/24 19:24:57;;;;;;;3.33;1.70;;;6.90;43.30;;;;;;10265738;28;20980;-75
2023/11/24 19:30:02;;;;;;;2.17;1.50;;;6.80;43.40;;;;;;10265078;28;20239;-75
2023/11/24 19:35:06;;;;;;;2.07;1.60;;;6.80;43.40;;;;;;10264355;28;20287;-75
2023/11/24 19:40:11;;;;;;;2.60;1.43;;;6.80;43.40;;;;;;10265609;28;20643;-75
2023/11/24 19:45:16;;;;;;;2.57;1.63;;;6.80;43.40;;;;;;10265131;28;20306;-75
2023/11/24 19:50:19;;;;;;;3.67;2.00;;;6.70;43.50;;;;;;10260099;28;20321;-75
2023/11/24 19:55:22;;;;;;;2.13;1.73;;;6.80;43.40;;;;;;10247233;28;20232;-75
2023/11/24 20:00:27;;;;;;;1.80;1.57;;;6.80;43.50;;;;;;10260307;28;20227;-74
2023/11/24 20:05:30;;;;;;;2.00;1.77;;;6.80;43.40;;;;;;10257157;28;20238;-74
2023/11/24 20:10:33;;;;;;;2.20;1.70;;;6.80;43.50;;;;;;10261107;28;20243;-74
2023/11/24 20:15:40;;;;;;;3.13;1.80;;;6.80;43.70;;;;;;10259324;28;20234;-74
2023/11/24 20:20:45;;;;;;;2.13;1.60;;;6.80;43.60;;;;;;10257920;28;20246;-74
2023/11/24 20:25:48;;;;;;;2.73;1.63;;;6.80;43.40;;;;;;10258018;28;20900;-75
2023/11/24 20:30:53;;;;;;;4.10;1.90;;;6.80;43.50;;;;;;10259676;28;20665;-75
2023/11/24 20:35:56;;;;;;;2.17;1.60;;;6.80;43.50;;;;;;10265825;28;20302;-75
2023/11/24 20:40:59;;;;;;;2.80;1.83;;;6.80;43.60;;;;;;10262896;28;20223;-76
2023/11/24 20:46:04;;;;;;;3.63;1.73;;;6.80;43.40;;;;;;10264578;28;20228;-75
2023/11/24 20:51:09;;;;;;;3.00;1.70;;;6.80;43.30;;;;;;10259353;28;20234;-75
2023/11/24 20:56:13;;;;;;;2.20;1.50;;;6.80;43.10;;;;;;10257255;28;20266;-76
2023/11/24 21:01:18;;;;;;;4.17;1.70;;;6.80;42.80;;;;;;10259944;28;20259;-75
2023/11/24 21:06:21;;;;;;;2.40;1.50;;;6.70;42.50;;;;;;10258594;28;20232;-76
2023/11/24 21:11:24;;;;;;;2.03;1.40;;;6.70;42.60;;;;;;10260020;28;20232;-75
2023/11/24 21:16:28;;;;;;;3.17;1.40;;;6.70;42.70;;;;;;10255688;28;20313;-76
2023/11/24 21:21:32;;;;;;;2.60;1.40;;;6.60;42.70;;;;;;10258893;28;20321;-76
2023/11/24 21:26:35;;;;;;;3.33;1.30;;;6.60;42.80;;;;;;10252233;28;20224;-75
2023/11/24 21:31:40;;;;;;;3.07;1.57;;;6.60;43.00;;;;;;10257398;28;20242;-75
2023/11/24 21:36:43;;;;;;;1.67;1.33;;;6.60;42.70;;;;;;10265750;28;20227;-75
2023/11/24 21:41:47;;;;;;;2.80;1.40;;;6.60;42.80;;;;;;10267791;28;20233;-76
2023/11/24 21:46:53;;;;;;;3.10;1.30;;;6.60;42.70;;;;;;10274062;28;20918;-75
2023/11/24 21:51:56;;;;;;;2.30;1.50;;;6.60;42.70;;;;;;10265322;28;20825;-76
2023/11/24 21:57:00;;;;;;;2.47;1.40;;;6.60;42.70;;;;;;10265800;28;20235;-75
2023/11/24 22:02:05;;;;;;;1.93;1.10;;;6.60;42.70;;;;;;10273584;28;20617;-74
2023/11/24 22:07:08;;;;;;;2.43;1.30;;;6.60;42.90;;;;;;10268820;28;20274;-75
2023/11/24 22:12:11;;;;;;;2.17;1.17;;;6.60;42.90;;;;;;10276741;28;20232;-75
2023/11/24 22:17:16;;;;;;;2.17;1.20;;;6.50;42.90;;;;;;10263005;28;20219;-75
2023/11/24 22:22:20;;;;;;;3.93;1.20;;;6.50;42.90;;;;;;10262277;28;20754;-74
2023/11/24 22:27:23;;;;;;;3.43;1.30;;;6.50;43.00;;;;;;10266904;28;20371;-76
2023/11/24 22:32:29;;;;;;;2.33;1.33;;;6.50;42.80;;;;;;10273811;28;20246;-75
2023/11/24 22:37:33;;;;;;;2.47;1.30;;;6.50;42.70;;;;;;10268766;28;20235;-76
2023/11/24 22:42:36;;;;;;;3.30;1.37;;;6.50;42.60;;;;;;10266087;28;20865;-76
2023/11/24 22:47:43;;;;;;;4.90;1.43;;;6.50;41.80;;;;;;10269262;28;20726;-75
2023/11/24 22:52:47;;;;;;;1.43;1.10;;;6.50;42.00;;;;;;10262642;28;20233;-74
2023/11/24 22:57:51;;;;;;;5.67;2.20;;;6.50;42.30;;;;;;10269107;28;20228;-75
2023/11/24 23:02:56;;;;;;;3.90;1.77;;;6.50;42.30;;;;;;10260625;28;20240;-75
2023/11/24 23:07:59;;;;;;;2.30;1.00;;;6.50;41.90;;;;;;10264568;28;20303;-75
2023/11/24 23:13:03;;;;;;;1.17;0.90;;;6.50;41.90;;;;;;10258441;28;20220;-76
2023/11/24 23:18:08;;;;;;;1.00;0.80;;;6.50;41.90;;;;;;10249934;28;20334;-76
2023/11/24 23:23:11;;;;;;;1.53;0.97;;;6.50;42.10;;;;;;10257502;28;20224;-74
2023/11/24 23:28:14;;;;;;;1.90;1.37;;;6.40;42.10;;;;;;10269128;28;20224;-76
2023/11/24 23:33:19;;;;;;;1.97;1.50;;;6.40;42.30;;;;;;10270821;28;20286;-75
2023/11/24 23:38:22;;;;;;;1.10;1.00;;;6.40;42.50;;;;;;10268421;28;20602;-75
2023/11/24 23:43:25;;;;;;;1.03;0.93;;;6.40;42.60;;;;;;10265648;28;20242;-74
2023/11/24 23:48:30;;;;;;;0.83;0.73;;;6.40;42.70;;;;;;10266808;28;20235;-75
2023/11/24 23:53:34;;;;;;;0.93;0.87;;;6.30;43.00;;;;;;10266386;28;20227;-75
2023/11/24 23:58:38;;;;;;;1.70;1.00;;;6.30;43.00;;;;;;10261491;28;20235;-75
